createdAt,value
2019-02-24T00:01:32.740Z,3.36
2019-02-24T00:04:01.103Z,3.30
2019-02-24T00:06:29.428Z,3.36
2019-02-24T00:08:57.819Z,3.22
2019-02-24T00:11:26.131Z,3.14
2019-02-24T00:13:54.477Z,3.12
2019-02-24T00:16:23.455Z,3.07
2019-02-24T00:18:51.783Z,3.03
2019-02-24T00:21:20.126Z,2.92
2019-02-24T00:23:48.467Z,3.08
2019-02-24T00:26:16.880Z,3.03
2019-02-24T00:28:45.174Z,2.93
2019-02-24T00:31:13.706Z,2.97
2019-02-24T00:33:42.103Z,3.00
2019-02-24T00:36:11.035Z,3.18
2019-02-24T00:38:39.341Z,3.15
2019-02-24T00:41:07.702Z,3.19
2019-02-24T00:43:36.059Z,3.11
2019-02-24T00:46:04.484Z,3.07
2019-02-24T00:48:32.813Z,3.09
2019-02-24T00:51:01.159Z,3.11
2019-02-24T00:53:29.507Z,2.97
2019-02-24T00:55:57.860Z,2.98
2019-02-24T00:58:26.196Z,2.87
2019-02-24T01:00:54.553Z,2.76
2019-02-24T01:03:22.896Z,2.81
2019-02-24T01:05:51.242Z,2.64
2019-02-24T01:08:19.589Z,2.60
2019-02-24T01:10:47.928Z,2.54
2019-02-24T01:13:16.646Z,2.50
2019-02-24T01:15:45.005Z,2.44
2019-02-24T01:18:13.360Z,2.54
2019-02-24T01:20:41.715Z,2.39
2019-02-24T01:23:10.420Z,2.48
2019-02-24T01:25:38.841Z,2.42
2019-02-24T01:28:07.290Z,2.46
2019-02-24T01:30:35.767Z,2.43
2019-02-24T01:33:04.216Z,2.46
2019-02-24T01:35:32.551Z,2.52
2019-02-24T01:38:00.906Z,2.67
2019-02-24T01:40:29.243Z,2.73
2019-02-24T01:42:57.599Z,2.78
2019-02-24T01:45:25.974Z,2.70
2019-02-24T01:47:54.303Z,2.46
2019-02-24T01:50:22.798Z,2.31
2019-02-24T01:52:51.163Z,2.38
2019-02-24T01:55:19.525Z,2.24
2019-02-24T01:57:47.871Z,2.20
2019-02-24T02:00:16.699Z,1.99
2019-02-24T02:02:45.062Z,2.07
2019-02-24T02:05:14.026Z,2.19
2019-02-24T02:07:42.379Z,2.25
2019-02-24T02:10:11.408Z,2.13
2019-02-24T02:12:39.778Z,2.21
2019-02-24T02:15:08.543Z,2.23
2019-02-24T02:17:36.913Z,2.05
2019-02-24T02:20:07.879Z,2.03
2019-02-24T02:22:36.245Z,1.87
2019-02-24T02:25:06.006Z,1.89
2019-02-24T02:27:34.507Z,1.91
2019-02-24T02:30:02.905Z,1.89
2019-02-24T02:32:31.284Z,1.89
2019-02-24T02:34:59.629Z,1.86
2019-02-24T02:37:28.004Z,1.83
2019-02-24T02:39:56.602Z,1.86
2019-02-24T02:42:24.966Z,1.80
2019-02-24T02:44:53.290Z,1.90
2019-02-24T02:47:21.602Z,1.88
2019-02-24T02:49:50.005Z,1.97
2019-02-24T02:52:18.326Z,1.72
2019-02-24T02:54:46.692Z,1.56
2019-02-24T02:57:15.044Z,1.46
2019-02-24T02:59:43.420Z,1.51
2019-02-24T03:02:12.212Z,1.67
2019-02-24T03:04:40.545Z,1.70
2019-02-24T03:07:12.864Z,1.77
2019-02-24T03:09:41.236Z,1.82
2019-02-24T03:12:09.682Z,1.87
2019-02-24T03:14:38.023Z,1.87
2019-02-24T03:17:06.428Z,1.66
2019-02-24T03:19:34.803Z,1.68
2019-02-24T03:22:03.159Z,1.45
2019-02-24T03:24:31.513Z,1.26
2019-02-24T03:26:59.830Z,1.29
2019-02-24T03:29:28.220Z,1.39
2019-02-24T03:31:56.585Z,1.45
2019-02-24T03:34:24.951Z,1.38
2019-02-24T03:36:53.302Z,1.27
2019-02-24T03:39:21.772Z,1.31
2019-02-24T03:41:50.353Z,1.31
2019-02-24T03:44:18.721Z,1.30
2019-02-24T03:46:47.045Z,1.15
2019-02-24T03:49:15.402Z,1.30
2019-02-24T03:51:43.729Z,1.32
2019-02-24T03:54:12.620Z,1.21
2019-02-24T03:56:41.023Z,1.28
2019-02-24T03:59:15.120Z,1.40
2019-02-24T04:01:40.452Z,1.34
2019-02-24T04:04:08.857Z,1.27
2019-02-24T04:06:37.201Z,1.34
2019-02-24T04:09:05.730Z,1.26
2019-02-24T04:11:34.101Z,1.29
2019-02-24T04:14:02.509Z,1.26
2019-02-24T04:16:30.868Z,1.31
2019-02-24T04:18:59.281Z,1.32
2019-02-24T04:21:27.585Z,1.42
2019-02-24T04:23:55.926Z,1.35
2019-02-24T04:26:24.267Z,1.34
2019-02-24T04:28:52.590Z,1.32
2019-02-24T04:31:20.932Z,1.40
2019-02-24T04:33:49.256Z,1.16
2019-02-24T04:36:17.616Z,1.30
2019-02-24T04:38:45.992Z,1.28
2019-02-24T04:41:14.522Z,1.19
2019-02-24T04:43:42.886Z,1.19
2019-02-24T04:46:11.833Z,1.11
2019-02-24T04:48:40.144Z,0.99
2019-02-24T04:51:08.498Z,0.86
2019-02-24T04:53:36.836Z,1.09
2019-02-24T04:56:05.176Z,1.18
2019-02-24T04:58:33.548Z,1.15
2019-02-24T05:01:01.916Z,1.08
2019-02-24T05:03:30.428Z,1.21
2019-02-24T05:05:58.742Z,1.24
2019-02-24T05:08:27.114Z,1.04
2019-02-24T05:10:55.437Z,1.04
2019-02-24T05:13:23.795Z,1.01
2019-02-24T05:15:52.118Z,1.17
2019-02-24T05:18:20.519Z,1.09
2019-02-24T05:20:48.872Z,0.98
2019-02-24T05:23:17.250Z,0.74
2019-02-24T05:25:45.608Z,0.85
2019-02-24T05:28:13.952Z,0.78
2019-02-24T05:30:42.268Z,0.82
2019-02-24T05:33:12.404Z,0.78
2019-02-24T05:35:40.737Z,0.93
2019-02-24T05:38:09.075Z,1.15
2019-02-24T05:40:37.431Z,1.29
2019-02-24T05:43:05.761Z,1.47
2019-02-24T05:45:34.097Z,1.39
2019-02-24T05:48:02.431Z,1.25
2019-02-24T05:50:30.843Z,1.29
2019-02-24T05:52:59.179Z,1.20
2019-02-24T05:55:27.624Z,0.83
2019-02-24T05:57:55.914Z,0.66
2019-02-24T06:00:24.282Z,0.68
2019-02-24T06:02:52.622Z,0.53
2019-02-24T06:05:20.980Z,0.54
2019-02-24T06:07:49.309Z,0.52
2019-02-24T06:10:17.720Z,0.72
2019-02-24T06:12:46.085Z,0.73
2019-02-24T06:15:14.449Z,0.61
2019-02-24T06:17:42.772Z,0.56
2019-02-24T06:20:11.755Z,0.53
2019-02-24T06:22:40.109Z,0.90
2019-02-24T06:25:09.569Z,0.86
2019-02-24T06:27:37.901Z,0.89
2019-02-24T06:30:08.549Z,0.84
2019-02-24T06:32:36.844Z,1.29
2019-02-24T06:35:07.342Z,1.61
2019-02-24T06:37:35.643Z,2.01
2019-02-24T06:40:04.870Z,2.67
2019-02-24T06:42:33.189Z,3.92
2019-02-24T06:45:01.541Z,3.99
2019-02-24T06:47:29.865Z,3.72
2019-02-24T06:49:58.223Z,4.06
2019-02-24T06:52:28.100Z,4.45
2019-02-24T06:54:56.599Z,5.18
2019-02-24T06:57:24.952Z,6.15
2019-02-24T06:59:53.568Z,6.57
2019-02-24T07:02:21.995Z,7.44
2019-02-24T07:04:50.358Z,7.48
2019-02-24T07:07:18.716Z,8.16
2019-02-24T07:09:47.048Z,6.52
2019-02-24T07:12:15.386Z,6.86
2019-02-24T07:14:43.804Z,8.68
2019-02-24T07:17:12.183Z,9.48
2019-02-24T07:19:40.516Z,9.58
2019-02-24T07:22:09.128Z,10.17
2019-02-24T07:24:37.458Z,8.13
2019-02-24T07:27:05.967Z,8.10
2019-02-24T07:29:34.383Z,9.26
2019-02-24T07:32:09.200Z,8.05
2019-02-24T07:34:39.021Z,7.88
2019-02-24T07:37:12.981Z,8.53
2019-02-24T07:39:38.509Z,6.58
2019-02-24T07:42:07.514Z,6.74
2019-02-24T07:44:35.857Z,6.25
2019-02-24T07:47:04.549Z,6.86
2019-02-24T07:49:33.270Z,7.20
2019-02-24T07:52:01.692Z,6.12
2019-02-24T07:54:30.272Z,6.25
2019-02-24T07:56:58.933Z,7.10
2019-02-24T07:59:27.392Z,7.79
2019-02-24T08:01:56.164Z,6.95
2019-02-24T08:04:24.682Z,6.48
2019-02-24T08:06:53.133Z,7.95
2019-02-24T08:09:21.540Z,8.23
2019-02-24T08:11:49.876Z,6.06
2019-02-24T08:14:18.246Z,6.58
2019-02-24T08:16:46.560Z,7.73
2019-02-24T08:19:14.966Z,6.89
2019-02-24T08:21:43.289Z,5.86
2019-02-24T08:24:11.638Z,5.93
2019-02-24T08:26:40.007Z,6.16
2019-02-24T08:29:08.555Z,6.60
2019-02-24T08:31:36.930Z,5.88
2019-02-24T08:34:05.253Z,5.63
2019-02-24T08:36:33.580Z,5.62
2019-02-24T08:39:01.921Z,6.67
2019-02-24T08:41:30.355Z,6.15
2019-02-24T08:43:58.713Z,6.81
2019-02-24T08:46:27.165Z,7.32
2019-02-24T08:48:55.496Z,8.58
2019-02-24T08:51:23.989Z,8.40
2019-02-24T08:53:52.339Z,9.04
2019-02-24T08:56:20.695Z,9.30
2019-02-24T08:58:49.047Z,9.69
2019-02-24T09:01:17.369Z,8.38
2019-02-24T09:03:46.356Z,6.71
2019-02-24T09:06:14.684Z,6.59
2019-02-24T09:08:43.017Z,6.44
2019-02-24T09:11:11.468Z,6.13
2019-02-24T09:13:39.817Z,5.10
2019-02-24T09:16:08.808Z,4.98
2019-02-24T09:18:37.251Z,5.33
2019-02-24T09:21:05.679Z,5.75
2019-02-24T09:23:34.010Z,5.79
2019-02-24T09:26:02.365Z,5.59
2019-02-24T09:28:30.773Z,5.36
2019-02-24T09:31:01.066Z,5.58
2019-02-24T09:33:29.476Z,5.73
2019-02-24T09:35:57.798Z,5.93
2019-02-24T09:38:26.154Z,5.70
2019-02-24T09:40:54.477Z,5.73
2019-02-24T09:43:22.830Z,5.85
2019-02-24T09:45:51.233Z,6.21
2019-02-24T09:48:19.540Z,6.22
2019-02-24T09:50:47.877Z,6.34
2019-02-24T09:53:16.250Z,6.09
2019-02-24T09:55:44.572Z,6.12
2019-02-24T09:58:12.965Z,6.28
2019-02-24T10:00:41.280Z,6.48
2019-02-24T10:03:09.986Z,6.53
2019-02-24T10:05:38.997Z,6.18
2019-02-24T10:08:08.228Z,6.06
2019-02-24T10:10:36.662Z,6.26
2019-02-24T10:13:05.100Z,6.46
2019-02-24T10:15:33.403Z,6.48
2019-02-24T10:18:01.762Z,5.84
2019-02-24T10:20:30.096Z,6.22
2019-02-24T10:22:58.416Z,6.37
2019-02-24T10:25:26.745Z,6.58
2019-02-24T10:27:55.096Z,6.55
2019-02-24T10:30:23.420Z,6.52
2019-02-24T10:32:51.819Z,6.75
2019-02-24T10:35:20.163Z,6.45
2019-02-24T10:37:48.517Z,6.73
2019-02-24T10:40:16.857Z,6.67
2019-02-24T10:42:45.233Z,6.94
2019-02-24T10:45:15.958Z,6.89
2019-02-24T10:47:44.440Z,6.86
2019-02-24T10:50:15.244Z,6.87
2019-02-24T10:52:43.697Z,7.09
2019-02-24T10:55:12.577Z,7.01
2019-02-24T10:57:40.977Z,7.13
2019-02-24T11:00:12.640Z,7.19
2019-02-24T11:02:41.172Z,7.28
2019-02-24T11:05:10.118Z,7.20
2019-02-24T11:07:38.435Z,7.46
2019-02-24T11:10:09.576Z,7.17
2019-02-24T11:12:37.949Z,7.55
2019-02-24T11:15:09.971Z,7.75
2019-02-24T11:17:38.344Z,7.26
2019-02-24T11:20:12.096Z,7.15
2019-02-24T11:22:40.417Z,7.20
2019-02-24T11:25:10.790Z,7.30
2019-02-24T11:27:39.159Z,7.61
2019-02-24T11:30:13.825Z,7.87
2019-02-24T11:32:42.124Z,7.88
2019-02-24T11:35:12.010Z,7.99
2019-02-24T11:37:40.492Z,8.01
2019-02-24T11:40:12.722Z,8.22
2019-02-24T11:42:41.123Z,8.31
2019-02-24T11:45:10.499Z,8.12
2019-02-24T11:47:38.911Z,7.95
2019-02-24T11:50:09.902Z,8.22
2019-02-24T11:52:38.292Z,8.25
2019-02-24T11:55:08.562Z,8.33
2019-02-24T11:57:37.046Z,8.55
2019-02-24T12:00:11.384Z,8.30
2019-02-24T12:02:41.738Z,8.59
2019-02-24T12:05:12.266Z,8.76
2019-02-24T12:07:40.603Z,8.74
2019-02-24T12:10:11.641Z,8.94
2019-02-24T12:12:40.064Z,9.07
2019-02-24T12:15:11.198Z,9.27
2019-02-24T12:17:39.574Z,9.35
2019-02-24T12:20:11.091Z,9.10
2019-02-24T12:22:39.554Z,8.65
2019-02-24T12:25:09.368Z,9.12
2019-02-24T12:27:37.679Z,9.30
2019-02-24T12:30:09.778Z,9.36
2019-02-24T12:32:38.157Z,9.34
2019-02-24T12:35:07.174Z,9.52
2019-02-24T12:37:35.511Z,9.54
2019-02-24T12:40:05.024Z,9.56
2019-02-24T12:42:33.358Z,9.64
2019-02-24T12:45:01.707Z,9.51
2019-02-24T12:47:30.054Z,9.66
2019-02-24T12:50:03.109Z,9.78
2019-02-24T12:52:28.762Z,9.77
2019-02-24T12:54:57.097Z,9.72
2019-02-24T12:57:25.441Z,9.91
2019-02-24T12:59:53.768Z,9.98
2019-02-24T13:02:22.253Z,10.15
2019-02-24T13:04:50.623Z,10.25
2019-02-24T13:07:18.968Z,10.29
2019-02-24T13:09:47.315Z,10.41
2019-02-24T13:12:15.667Z,10.42
2019-02-24T13:14:44.780Z,10.53
2019-02-24T13:17:13.109Z,10.22
2019-02-24T13:19:41.446Z,10.56
2019-02-24T13:22:10.119Z,10.58
2019-02-24T13:24:38.462Z,10.72
2019-02-24T13:27:06.990Z,10.91
2019-02-24T13:29:35.382Z,10.97
2019-02-24T13:32:04.884Z,10.98
2019-02-24T13:34:33.249Z,10.85
2019-02-24T13:37:01.616Z,11.07
2019-02-24T13:39:30.213Z,11.09
2019-02-24T13:41:58.988Z,11.11
2019-02-24T13:44:27.308Z,11.18
2019-02-24T13:46:55.634Z,11.34
2019-02-24T13:49:24.730Z,11.37
2019-02-24T13:51:53.074Z,11.36
2019-02-24T13:54:21.421Z,10.78
2019-02-24T13:56:49.761Z,10.88
2019-02-24T13:59:18.106Z,11.23
2019-02-24T14:01:46.416Z,11.23
2019-02-24T14:04:14.789Z,11.33
2019-02-24T14:06:43.122Z,11.47
2019-02-24T14:09:11.584Z,11.62
2019-02-24T14:11:39.943Z,11.66
2019-02-24T14:14:09.918Z,11.76
2019-02-24T14:16:38.338Z,11.76
2019-02-24T14:19:06.967Z,11.68
2019-02-24T14:21:35.289Z,11.72
2019-02-24T14:24:03.837Z,11.49
2019-02-24T14:26:32.170Z,11.11
2019-02-24T14:29:00.465Z,11.04
2019-02-24T14:31:28.800Z,11.03
2019-02-24T14:33:57.128Z,11.26
2019-02-24T14:36:25.496Z,11.18
2019-02-24T14:38:53.866Z,11.14
2019-02-24T14:41:22.233Z,11.17
2019-02-24T14:43:50.635Z,11.32
2019-02-24T14:46:19.040Z,11.21
2019-02-24T14:48:47.574Z,11.23
2019-02-24T14:51:15.934Z,11.41
2019-02-24T14:53:44.284Z,11.64
2019-02-24T14:56:12.616Z,11.63
2019-02-24T14:58:40.993Z,11.42
2019-02-24T15:01:10.316Z,11.48
2019-02-24T15:03:38.658Z,11.76
2019-02-24T15:06:07.402Z,11.59
2019-02-24T15:08:35.755Z,11.55
2019-02-24T15:11:04.101Z,11.67
2019-02-24T15:13:32.566Z,11.75
2019-02-24T15:16:00.913Z,11.86
2019-02-24T15:18:29.267Z,11.75
2019-02-24T15:20:57.786Z,11.82
2019-02-24T15:23:26.190Z,11.82
2019-02-24T15:25:55.261Z,11.70
2019-02-24T15:28:23.676Z,11.83
2019-02-24T15:30:52.032Z,11.70
2019-02-24T15:33:20.385Z,11.61
2019-02-24T15:35:48.716Z,11.55
2019-02-24T15:38:19.037Z,11.74
2019-02-24T15:40:47.549Z,11.52
2019-02-24T15:43:16.375Z,11.45
2019-02-24T15:45:44.860Z,11.29
2019-02-24T15:48:13.954Z,11.47
2019-02-24T15:50:42.305Z,11.58
2019-02-24T15:53:10.674Z,11.53
2019-02-24T15:55:39.017Z,11.48
2019-02-24T15:58:07.617Z,11.55
2019-02-24T16:00:36.037Z,11.48
2019-02-24T16:03:04.442Z,11.45
2019-02-24T16:05:32.842Z,11.37
2019-02-24T16:08:01.382Z,11.22
2019-02-24T16:10:32.564Z,11.30
2019-02-24T16:13:01.816Z,11.27
2019-02-24T16:15:30.437Z,11.31
2019-02-24T16:17:58.835Z,11.21
2019-02-24T16:20:31.842Z,11.24
2019-02-24T16:23:00.165Z,11.00
2019-02-24T16:25:28.518Z,11.07
2019-02-24T16:27:57.029Z,11.00
2019-02-24T16:30:25.383Z,11.02
2019-02-24T16:32:54.439Z,10.83
2019-02-24T16:35:22.758Z,10.67
2019-02-24T16:37:51.386Z,10.72
2019-02-24T16:40:22.097Z,10.59
2019-02-24T16:42:50.447Z,10.50
2019-02-24T16:45:18.788Z,10.55
2019-02-24T16:47:47.178Z,10.65
2019-02-24T16:50:16.972Z,10.45
2019-02-24T16:52:45.329Z,10.55
2019-02-24T16:55:14.997Z,10.49
2019-02-24T16:57:43.397Z,10.32
2019-02-24T17:00:15.307Z,10.29
2019-02-24T17:02:43.633Z,10.36
2019-02-24T17:05:12.092Z,10.32
2019-02-24T17:07:40.538Z,10.40
2019-02-24T17:10:11.028Z,10.28
2019-02-24T17:12:39.418Z,10.16
2019-02-24T17:15:11.117Z,9.84
2019-02-24T17:17:39.505Z,9.65
2019-02-24T17:20:10.264Z,9.54
2019-02-24T17:22:38.699Z,9.38
2019-02-24T17:25:09.378Z,9.44
2019-02-24T17:27:37.688Z,9.37
2019-02-24T17:30:08.095Z,9.18
2019-02-24T17:32:36.647Z,9.02
2019-02-24T17:35:06.037Z,8.92
2019-02-24T17:37:34.449Z,9.01
2019-02-24T17:40:03.058Z,9.23
2019-02-24T17:42:31.757Z,9.28
2019-02-24T17:45:00.283Z,9.21
2019-02-24T17:47:28.679Z,9.20
2019-02-24T17:49:57.058Z,9.11
2019-02-24T17:52:25.388Z,9.01
2019-02-24T17:54:53.756Z,9.07
2019-02-24T17:57:22.242Z,8.91
2019-02-24T17:59:50.566Z,8.96
2019-02-24T18:02:18.949Z,9.01
2019-02-24T18:04:47.386Z,9.05
2019-02-24T18:07:15.718Z,8.93
2019-02-24T18:09:44.064Z,9.04
2019-02-24T18:12:13.186Z,9.01
2019-02-24T18:14:41.541Z,8.98
2019-02-24T18:17:10.501Z,8.74
2019-02-24T18:19:38.873Z,8.57
2019-02-24T18:22:07.225Z,8.52
2019-02-24T18:24:35.676Z,8.77
2019-02-24T18:27:04.211Z,8.68
2019-02-24T18:29:32.579Z,8.82
2019-02-24T18:32:00.963Z,8.88
2019-02-24T18:34:29.348Z,8.80
2019-02-24T18:36:57.761Z,8.60
2019-02-24T18:39:26.106Z,8.36
2019-02-24T18:41:54.436Z,8.39
2019-02-24T18:44:22.806Z,8.23
2019-02-24T18:46:51.150Z,8.17
2019-02-24T18:49:19.568Z,8.21
2019-02-24T18:51:47.920Z,8.19
2019-02-24T18:54:16.758Z,8.17
2019-02-24T18:56:45.153Z,8.06
2019-02-24T18:59:13.827Z,7.89
2019-02-24T19:01:42.236Z,7.76
2019-02-24T19:04:11.336Z,7.71
2019-02-24T19:06:39.667Z,7.74
2019-02-24T19:09:08.422Z,7.74
2019-02-24T19:11:36.810Z,7.72
2019-02-24T19:14:05.285Z,7.68
2019-02-24T19:16:33.584Z,7.69
2019-02-24T19:19:01.946Z,7.66
2019-02-24T19:21:30.317Z,7.49
2019-02-24T19:23:58.708Z,7.57
2019-02-24T19:26:27.106Z,7.45
2019-02-24T19:28:55.505Z,7.51
2019-02-24T19:31:23.900Z,7.51
2019-02-24T19:33:52.798Z,7.42
2019-02-24T19:36:21.132Z,7.42
2019-02-24T19:38:49.573Z,7.30
2019-02-24T19:41:17.916Z,7.25
2019-02-24T19:43:46.232Z,7.22
2019-02-24T19:46:14.643Z,7.23
2019-02-24T19:48:43.056Z,7.33
2019-02-24T19:51:12.159Z,7.34
2019-02-24T19:53:40.485Z,7.24
2019-02-24T19:56:09.000Z,7.20
2019-02-24T19:58:42.177Z,7.16
2019-02-24T20:01:14.161Z,7.08
2019-02-24T20:03:46.264Z,7.03
2019-02-24T20:06:14.670Z,7.06
2019-02-24T20:08:43.006Z,7.27
2019-02-24T20:11:11.834Z,7.35
2019-02-24T20:13:40.176Z,7.39
2019-02-24T20:16:08.537Z,7.11
2019-02-24T20:18:36.845Z,7.17
2019-02-24T20:21:07.929Z,7.00
2019-02-24T20:23:36.456Z,7.11
2019-02-24T20:26:04.811Z,7.08
2019-02-24T20:28:33.120Z,7.21
2019-02-24T20:31:01.525Z,7.31
2019-02-24T20:33:31.030Z,7.35
2019-02-24T20:35:59.378Z,7.41
2019-02-24T20:38:27.764Z,7.35
2019-02-24T20:40:56.211Z,7.31
2019-02-24T20:43:24.516Z,7.21
2019-02-24T20:45:52.868Z,7.30
2019-02-24T20:48:21.222Z,7.17
2019-02-24T20:50:51.237Z,7.11
2019-02-24T20:53:19.882Z,7.18
2019-02-24T20:55:48.191Z,7.12
2019-02-24T20:58:16.588Z,7.07
2019-02-24T21:00:46.685Z,6.99
2019-02-24T21:03:15.069Z,6.79
2019-02-24T21:05:43.462Z,6.68
2019-02-24T21:08:12.458Z,6.63
2019-02-24T21:10:40.850Z,6.62
2019-02-24T21:13:09.542Z,6.39
2019-02-24T21:15:37.926Z,6.21
2019-02-24T21:18:06.394Z,6.12
2019-02-24T21:20:34.876Z,6.09
2019-02-24T21:23:03.335Z,6.10
2019-02-24T21:25:32.011Z,6.06
2019-02-24T21:28:01.405Z,6.14
2019-02-24T21:30:31.711Z,6.08
2019-02-24T21:33:00.174Z,5.98
2019-02-24T21:35:28.542Z,5.93
2019-02-24T21:37:56.971Z,5.83
2019-02-24T21:40:25.361Z,5.77
2019-02-24T21:42:53.900Z,5.72
2019-02-24T21:45:24.608Z,5.64
2019-02-24T21:47:52.944Z,5.61
2019-02-24T21:50:21.999Z,5.45
2019-02-24T21:52:50.353Z,5.48
2019-02-24T21:55:18.760Z,5.43
2019-02-24T21:57:47.138Z,5.40
2019-02-24T22:00:18.791Z,5.39
2019-02-24T22:02:47.204Z,5.40
2019-02-24T22:05:15.959Z,5.33
2019-02-24T22:07:44.564Z,5.32
2019-02-24T22:10:14.587Z,5.45
2019-02-24T22:12:42.932Z,5.29
2019-02-24T22:15:15.677Z,5.34
2019-02-24T22:17:44.110Z,5.34
2019-02-24T22:20:15.027Z,5.31
2019-02-24T22:22:43.443Z,5.26
2019-02-24T22:25:14.139Z,5.28
2019-02-24T22:27:42.688Z,5.34
2019-02-24T22:30:15.345Z,5.32
2019-02-24T22:32:43.746Z,5.26
2019-02-24T22:35:13.026Z,5.27
2019-02-24T22:37:41.346Z,5.22
2019-02-24T22:40:12.692Z,5.34
2019-02-24T22:42:41.242Z,5.09
2019-02-24T22:45:16.442Z,5.19
2019-02-24T22:47:44.899Z,5.22
2019-02-24T22:50:14.694Z,5.10
2019-02-24T22:52:43.388Z,5.08
2019-02-24T22:55:14.240Z,5.04
2019-02-24T22:57:42.597Z,4.98
2019-02-24T23:00:16.375Z,5.05
2019-02-24T23:02:44.982Z,5.02
2019-02-24T23:05:15.344Z,4.91
2019-02-24T23:08:11.655Z,4.91
2019-02-24T23:10:40.037Z,5.00
2019-02-24T23:13:08.390Z,4.92
2019-02-24T23:15:36.874Z,4.95
2019-02-24T23:18:05.346Z,4.79
2019-02-24T23:20:33.688Z,4.75
2019-02-24T23:23:02.052Z,4.63
2019-02-24T23:25:30.447Z,4.65
2019-02-24T23:27:58.768Z,4.58
2019-02-24T23:30:27.082Z,4.67
2019-02-24T23:32:55.462Z,4.69
2019-02-24T23:35:23.862Z,4.62
2019-02-24T23:37:52.284Z,4.67
2019-02-24T23:40:20.688Z,4.57
2019-02-24T23:42:49.047Z,4.42
2019-02-24T23:45:17.566Z,4.46
2019-02-24T23:47:45.959Z,4.43
2019-02-24T23:50:14.578Z,4.33
2019-02-24T23:52:42.930Z,4.30
2019-02-24T23:55:12.569Z,4.11
2019-02-24T23:57:40.897Z,4.11
